Time;durP1;ratioP1;P1;durP2;ratioP2;P2;SDS_P1;SDS_P2;PMS_P1;PMS_P2;Temp;Humidity;BMP_temperature;BMP_pressure;BME280_temperature;BME280_humidity;BME280_pressure;Samples;Min_cycle;Max_cycle;Signal;HPM_P1;HPM_P2
2019/04/09 00:00:37;;;;;;;6.4;5.1;;;;;;;8.31;84.02148;931.6696;;;;
2019/04/09 00:05:25;;;;;;;5.6;4.8;;;;;;;7.97;85.64551;931.6125;;;;
2019/04/09 00:07:50;;;;;;;5.6;4.7;;;;;;;8.17;84.99512;931.623;;;;
2019/04/09 00:10:16;;;;;;;5.8;4.7;;;;;;;8.26;84.38574;931.5772;;;;
2019/04/09 00:12:44;;;;;;;6.3;5.5;;;;;;;8.58;82.72266;931.5798;;;;
2019/04/09 00:15:09;;;;;;;9;5.6;;;;;;;8.63;82.81055;931.5884;;;;
2019/04/09 00:17:35;;;;;;;6.4;5.1;;;;;;;8.72;82.11133;931.6096;;;;
2019/04/09 00:20:00;;;;;;;5.8;5.2;;;;;;;8.46;82.47266;931.5919;;;;
2019/04/09 00:22:25;;;;;;;7.7;5.8;;;;;;;8.43;82.69238;931.5655;;;;
2019/04/09 00:24:50;;;;;;;6;5.4;;;;;;;8.24;83.72363;931.6255;;;;
2019/04/09 00:27:15;;;;;;;6;5.4;;;;;;;8.54;82.20215;931.5756;;;;
2019/04/09 00:29:41;;;;;;;5.6;5;;;;;;;8.43;82.40723;931.6376;;;;
2019/04/09 00:32:06;;;;;;;7.8;5.6;;;;;;;8.41;83.26855;931.6431;;;;
2019/04/09 00:34:31;;;;;;;6.6;5.5;;;;;;;8.47;82.81543;931.7006;;;;
2019/04/09 00:36:56;;;;;;;5.6;5.1;;;;;;;8.57;82.16309;931.6362;;;;
2019/04/09 00:39:21;;;;;;;6.3;5.2;;;;;;;8.73;81.2041;931.6715;;;;
2019/04/09 00:41:46;;;;;;;7;5.6;;;;;;;8.88;80.40234;931.6948;;;;
2019/04/09 00:44:11;;;;;;;6.3;5.3;;;;;;;8.92;79.95605;931.6529;;;;
2019/04/09 00:46:37;;;;;;;6.9;5.3;;;;;;;8.94;79.77734;931.6721;;;;
2019/04/09 00:49:02;;;;;;;6.3;5.3;;;;;;;8.9;80.41699;931.6933;;;;
2019/04/09 00:51:27;;;;;;;9.1;5;;;;;;;8.8;80.83105;931.6688;;;;
2019/04/09 00:53:52;;;;;;;5.9;5;;;;;;;8.65;81.56348;931.6671;;;;
2019/04/09 00:56:19;;;;;;;6;5.2;;;;;;;8.44;82.41211;931.6616;;;;
2019/04/09 00:58:43;;;;;;;7.4;6;;;;;;;8.45;82.78711;931.6013;;;;
2019/04/09 01:01:10;;;;;;;7.4;5.2;;;;;;;8.41;82.68945;931.5967;;;;
2019/04/09 01:03:34;;;;;;;8.3;6.3;;;;;;;8.09;83.93262;931.5677;;;;
2019/04/09 01:06:02;;;;;;;7.4;6;;;;;;;7.88;85.03809;931.5879;;;;
2019/04/09 01:08:27;;;;;;;9.4;5.9;;;;;;;7.98;84.71875;931.603;;;;
2019/04/09 01:10:52;;;;;;;8.2;6.5;;;;;;;8.07;84.53027;931.5359;;;;
2019/04/09 01:13:17;;;;;;;15.8;10.2;;;;;;;8.16;83.99219;931.5611;;;;
2019/04/09 01:15:46;;;;;;;16.2;10.4;;;;;;;8.32;82.91016;931.5966;;;;
2019/04/09 01:18:11;;;;;;;13;9;;;;;;;8.44;82.23047;931.6234;;;;
2019/04/09 01:20:36;;;;;;;9.7;6.4;;;;;;;8.33;82.3457;931.5952;;;;
2019/04/09 01:23:01;;;;;;;6.4;5;;;;;;;8.19;82.83887;931.6556;;;;
2019/04/09 01:25:43;;;;;;;6.4;4.8;;;;;;;8.03;83.37695;931.6323;;;;
2019/04/09 01:27:52;;;;;;;5.6;5;;;;;;;8.02;83.71387;931.5957;;;;
2019/04/09 01:30:31;;;;;;;5.9;4.6;;;;;;;8.02;83.42969;931.5577;;;;
2019/04/09 01:32:49;;;;;;;7.3;5.4;;;;;;;7.94;83.68652;931.5734;;;;
2019/04/09 01:35:29;;;;;;;7.1;5.6;;;;;;;8.05;83.58496;931.4913;;;;
2019/04/09 01:37:42;;;;;;;6.8;5.4;;;;;;;8.07;83.55469;931.4811;;;;
2019/04/09 01:42:41;;;;;;;7.2;6;;;;;;;7.68;85.69043;931.5304;;;;
2019/04/09 01:44:57;;;;;;;8.2;6.1;;;;;;;7.9;85.00879;931.4922;;;;
2019/04/09 01:47:31;;;;;;;6.3;5.5;;;;;;;7.94;84.19922;931.5433;;;;
2019/04/09 01:54:32;;;;;;;6.5;5.4;;;;;;;8.06;83.14355;931.4772;;;;
2019/04/09 01:56:03;;;;;;;6;4.7;;;;;;;8.06;83.50684;931.4604;;;;
2019/04/09 01:58:16;;;;;;;5.3;4.8;;;;;;;8.1;82.77637;931.4274;;;;
2019/04/09 02:00:44;;;;;;;5;4.5;;;;;;;8.01;83.44141;931.4696;;;;
2019/04/09 02:05:27;;;;;;;5.5;4.8;;;;;;;8.15;83.07031;931.4476;;;;
2019/04/09 02:07:59;;;;;;;6.1;5;;;;;;;8.11;83.30176;931.4093;;;;
2019/04/09 02:15:55;;;;;;;5;4.4;;;;;;;8.2;82.53418;931.4472;;;;
2019/04/09 02:18:30;;;;;;;5.5;4.5;;;;;;;7.97;82.64941;931.4016;;;;
2019/04/09 02:20:46;;;;;;;5.2;4.6;;;;;;;8.08;82.26172;931.3995;;;;
2019/04/09 02:23:06;;;;;;;4.9;4.4;;;;;;;7.97;82.67188;931.3801;;;;
2019/04/09 02:30:52;;;;;;;5.7;4.7;;;;;;;7.85;83.27344;931.3959;;;;
2019/04/09 02:33:06;;;;;;;5.6;4.6;;;;;;;7.89;83.11035;931.4343;;;;
2019/04/09 02:42:53;;;;;;;5.5;4.9;;;;;;;7.45;84.9541;931.3109;;;;
2019/04/09 02:45:31;;;;;;;5.6;5;;;;;;;7.51;85.00977;931.2671;;;;
2019/04/09 02:50:38;;;;;;;5.4;4.9;;;;;;;7.42;84.70898;931.3137;;;;
2019/04/09 02:52:54;;;;;;;6.2;5.3;;;;;;;7.5;84.49805;931.3019;;;;
2019/04/09 03:02:13;;;;;;;5.9;5.3;;;;;;;7.68;84.5791;931.3997;;;;
2019/04/09 03:07:09;;;;;;;6.6;5.2;;;;;;;7.96;83.82813;931.4023;;;;
2019/04/09 03:09:37;;;;;;;6.5;4.9;;;;;;;8;83.18848;931.3947;;;;
2019/04/09 03:11:58;;;;;;;5.7;5.1;;;;;;;8.18;82.33789;931.3733;;;;
2019/04/09 03:14:51;;;;;;;5.8;4.9;;;;;;;8.05;83.29004;931.4192;;;;
2019/04/09 03:20:38;;;;;;;8;5.8;;;;;;;7.9;83.89746;931.4501;;;;
2019/04/09 03:23:00;;;;;;;6.3;5.7;;;;;;;8.1;83.48047;931.4274;;;;
2019/04/09 03:32:39;;;;;;;6.5;5.3;;;;;;;7.81;84.59277;931.4249;;;;
2019/04/09 03:34:48;;;;;;;14.2;10.4;;;;;;;7.94;84.06152;931.4084;;;;
2019/04/09 03:37:28;;;;;;;17.7;12.4;;;;;;;8.05;83.06445;931.3851;;;;
2019/04/09 03:43:37;;;;;;;7.4;5.5;;;;;;;7.84;83.50879;931.3973;;;;
2019/04/09 03:48:14;;;;;;;7.5;4.9;;;;;;;7.28;85.35059;931.3517;;;;
2019/04/09 03:52:57;;;;;;;6.6;5.9;;;;;;;7.61;84.23633;931.3214;;;;
2019/04/09 03:55:21;;;;;;;7.9;6.4;;;;;;;7.44;85.44922;931.3456;;;;
2019/04/09 03:58:02;;;;;;;7.1;6.2;;;;;;;7.56;84.62207;931.3895;;;;
2019/04/09 04:02:55;;;;;;;7;6.1;;;;;;;7.41;85.71777;931.2678;;;;
2019/04/09 04:05:11;;;;;;;6.4;5.8;;;;;;;7.26;86.42383;931.3784;;;;
2019/04/09 04:07:40;;;;;;;6.7;5.9;;;;;;;7.2;86.74902;931.296;;;;
2019/04/09 04:10:01;;;;;;;6.9;6.1;;;;;;;7.21;86.97949;931.3121;;;;
2019/04/09 04:12:35;;;;;;;9.5;6.5;;;;;;;7.2;87.2041;931.2999;;;;
2019/04/09 04:15:06;;;;;;;8.5;6.6;;;;;;;7.26;86.94336;931.3158;;;;
2019/04/09 04:17:33;;;;;;;7.9;6.4;;;;;;;7.01;87.27832;931.2629;;;;
2019/04/09 04:19:36;;;;;;;7.2;6.2;;;;;;;6.82;88.17773;931.2336;;;;
2019/04/09 04:25:10;;;;;;;8.4;6.2;;;;;;;6.66;88.92676;931.2227;;;;
2019/04/09 04:33:11;;;;;;;8.4;6.8;;;;;;;7.68;85.24805;931.1881;;;;
2019/04/09 04:38:10;;;;;;;9.6;7.3;;;;;;;8.05;83.32324;931.1655;;;;
2019/04/09 04:58:13;;;;;;;6.4;5.7;;;;;;;8.1;82.10645;931.1356;;;;
2019/04/09 05:03:09;;;;;;;7.4;5.5;;;;;;;8.11;82.50488;931.0969;;;;
2019/04/09 05:06:41;;;;;;;5.6;5;;;;;;;8.08;82.20703;931.188;;;;
2019/04/09 05:07:50;;;;;;;6;4.9;;;;;;;8.05;82.17676;931.1995;;;;
2019/04/09 05:12:44;;;;;;;6.2;4.9;;;;;;;8.1;82.17578;931.1436;;;;
2019/04/09 05:15:46;;;;;;;9.2;5.3;;;;;;;8.27;81.60547;931.2252;;;;
2019/04/09 05:19:17;;;;;;;4.6;4.2;;;;;;;8.33;81.26465;931.1937;;;;
2019/04/09 05:20:12;;;;;;;6;4.6;;;;;;;8.2;82.28418;931.1768;;;;
2019/04/09 05:22:43;;;;;;;8.8;4.4;;;;;;;8;83.0293;931.1791;;;;
2019/04/09 05:28:55;;;;;;;6.5;3.9;;;;;;;7.88;82.75684;931.2875;;;;
2019/04/09 05:31:00;;;;;;;7;4.2;;;;;;;7.96;83.01074;931.2922;;;;
2019/04/09 05:38:10;;;;;;;6.9;4;;;;;;;8.32;81.26367;931.2667;;;;
2019/04/09 05:40:40;;;;;;;5.9;3.8;;;;;;;8.51;80.11914;931.3027;;;;
2019/04/09 05:44:03;;;;;;;5.8;3.7;;;;;;;8.56;80.06934;931.2353;;;;
2019/04/09 05:45:29;;;;;;;7.7;4;;;;;;;8.66;79.79199;931.2806;;;;
2019/04/09 05:48:03;;;;;;;5.8;4;;;;;;;8.9;79.65527;931.24;;;;
2019/04/09 05:50:30;;;;;;;6.8;4.1;;;;;;;9.05;77.88574;931.2464;;;;
2019/04/09 06:01:45;;;;;;;7.1;4.7;;;;;;;8.96;77.83301;931.3148;;;;
2019/04/09 06:10:36;;;;;;;10;5.2;;;;;;;9.64;77.12598;931.302;;;;
2019/04/09 06:13:01;;;;;;;7.8;4.3;;;;;;;9.72;74.94043;931.3228;;;;
2019/04/09 06:15:26;;;;;;;6.3;4.2;;;;;;;9.86;74.26855;931.2922;;;;
2019/04/09 06:17:51;;;;;;;13.9;4.3;;;;;;;9.83;74.69531;931.2659;;;;
2019/04/09 06:20:19;;;;;;;7.6;3.7;;;;;;;9.7;75.00391;931.1813;;;;
2019/04/09 06:22:48;;;;;;;13.4;5.2;;;;;;;9.5;75.31152;931.2355;;;;
2019/04/09 06:25:17;;;;;;;8.9;4.7;;;;;;;9.48;75.93457;931.1997;;;;
2019/04/09 06:27:39;;;;;;;13;5.5;;;;;;;9.84;75.00781;931.1793;;;;
2019/04/09 06:30:04;;;;;;;10.5;5.2;;;;;;;9.96;73.39648;931.2056;;;;
2019/04/09 06:32:44;;;;;;;14.4;4.9;;;;;;;10.1;73.91113;931.0889;;;;
2019/04/09 06:34:59;;;;;;;5.6;4.4;;;;;;;10.3;71.66309;931.1116;;;;
2019/04/09 06:47:28;;;;;;;21.8;4.7;;;;;;;10.63;71.11328;930.9746;;;;
2019/04/09 06:49:54;;;;;;;10.9;4.5;;;;;;;10.79;70.72754;930.9534;;;;
2019/04/09 06:52:16;;;;;;;10;3.4;;;;;;;11.14;71.2666;930.8777;;;;
2019/04/09 06:57:09;;;;;;;4.8;3.2;;;;;;;11.16;68.57129;930.9094;;;;
2019/04/09 07:02:04;;;;;;;5.8;3.1;;;;;;;12.13;67.35938;930.9398;;;;
2019/04/09 07:04:41;;;;;;;6.5;3.1;;;;;;;12.61;65.86328;930.9319;;;;
2019/04/09 07:23:19;;;;;;;7.1;2.9;;;;;;;14.62;54.6084;930.6533;;;;
2019/04/09 07:28:25;;;;;;;5.1;2.8;;;;;;;14.71;54.37695;930.642;;;;
2019/04/09 07:33:25;;;;;;;3.9;2.5;;;;;;;14.6;54.99707;930.6509;;;;
2019/04/09 07:33:48;;;;;;;4;2.3;;;;;;;14.37;54.86426;930.5769;;;;
2019/04/09 07:36:07;;;;;;;2.8;2.3;;;;;;;13.89;55.83887;930.6179;;;;
2019/04/09 07:38:43;;;;;;;3.9;2.6;;;;;;;13.1;58.83984;930.6371;;;;
2019/04/09 07:43:58;;;;;;;5.6;2.6;;;;;;;12.87;60.12891;930.5869;;;;
2019/04/09 07:46:34;;;;;;;3.3;2.1;;;;;;;13.25;59.2041;930.5823;;;;
2019/04/09 07:57:42;;;;;;;8.9;2.3;;;;;;;15.17;55.51855;930.6417;;;;
2019/04/09 08:00:23;;;;;;;3.8;2.1;;;;;;;15.01;55.82129;930.6654;;;;
2019/04/09 08:10:10;;;;;;;4;2.3;;;;;;;14.85;52.94238;930.573;;;;
2019/04/09 08:12:36;;;;;;;9.7;2.6;;;;;;;14.99;54.7002;930.5183;;;;
2019/04/09 08:15:26;;;;;;;3.1;2.2;;;;;;;15.21;53.45801;930.5461;;;;
2019/04/09 08:17:27;;;;;;;3;2.5;;;;;;;15.7;52.21289;930.4981;;;;
2019/04/09 08:24:43;;;;;;;5.5;2.2;;;;;;;14.75;55.25781;930.5011;;;;
2019/04/09 08:27:11;;;;;;;3;2.1;;;;;;;13.24;59.83496;930.4888;;;;
2019/04/09 08:32:07;;;;;;;3;2.2;;;;;;;14.15;59.03906;930.4321;;;;
2019/04/09 08:37:15;;;;;;;3.8;2.3;;;;;;;15.01;53.41113;930.4039;;;;
2019/04/09 08:39:25;;;;;;;6.1;4;;;;;;;15.6;51.3916;930.3999;;;;
2019/04/09 08:45:07;;;;;;;3.7;2.6;;;;;;;15.98;52.22266;930.3426;;;;
2019/04/09 08:47:37;;;;;;;5.9;2.4;;;;;;;15.72;53.78516;930.265;;;;
2019/04/09 08:57:04;;;;;;;4.1;2.3;;;;;;;17.54;44.62305;930.2845;;;;
2019/04/09 09:00:19;;;;;;;3.1;2.2;;;;;;;16.2;45.5166;930.1639;;;;
2019/04/09 09:04:32;;;;;;;2.3;1.9;;;;;;;16.91;44.70996;930.2608;;;;
2019/04/09 09:06:56;;;;;;;3.1;2.4;;;;;;;16.64;46.68555;930.2324;;;;
2019/04/09 09:09:14;;;;;;;2.5;2;;;;;;;16.44;48.58496;930.2106;;;;
2019/04/09 09:11:49;;;;;;;2.9;2.2;;;;;;;16.77;47.9043;930.2194;;;;
2019/04/09 09:14:02;;;;;;;2.7;2.4;;;;;;;17.42;44.30957;930.1713;;;;
2019/04/09 09:24:29;;;;;;;2.9;2.5;;;;;;;18.68;41.88867;930.1598;;;;
2019/04/09 09:29:21;;;;;;;3.5;2.7;;;;;;;20.02;38.06055;930.0988;;;;
2019/04/09 09:31:34;;;;;;;3.4;2.3;;;;;;;19.09;41.87012;930.1061;;;;
2019/04/09 09:34:18;;;;;;;2.8;2.5;;;;;;;20.36;36.65332;930.1099;;;;
2019/04/09 09:39:03;;;;;;;5.5;2.5;;;;;;;20.15;38.66797;930.0881;;;;
2019/04/09 09:43:46;;;;;;;4.3;2.2;;;;;;;20.16;38.27148;930.1308;;;;
2019/04/09 09:46:15;;;;;;;2.5;2.3;;;;;;;20.62;36.72168;930.1191;;;;
2019/04/09 09:51:02;;;;;;;2.1;1.9;;;;;;;19.11;39.93848;930.0602;;;;
2019/04/09 09:55:56;;;;;;;3.9;2.3;;;;;;;18.83;40.56641;930.0691;;;;
2019/04/09 09:59:08;;;;;;;3.3;2.5;;;;;;;18.15;41.65234;930.103;;;;
2019/04/09 10:05:36;;;;;;;4.2;3.6;;;;;;;16.57;47.44238;930.0858;;;;
2019/04/09 10:08:00;;;;;;;5.1;3.8;;;;;;;16.7;46.94629;930.0435;;;;
2019/04/09 10:12:51;;;;;;;5.5;4.7;;;;;;;15.14;52.97656;929.9487;;;;
2019/04/09 10:22:40;;;;;;;5.7;4.2;;;;;;;16.16;49.39844;929.8694;;;;
2019/04/09 10:25:11;;;;;;;5.1;3.9;;;;;;;16.65;47.78613;929.8702;;;;
2019/04/09 10:27:26;;;;;;;4;3.6;;;;;;;16.56;47.91504;929.7791;;;;
2019/04/09 10:29:43;;;;;;;4.1;3.6;;;;;;;16.71;47.82813;929.8544;;;;
2019/04/09 10:34:49;;;;;;;3.4;2.8;;;;;;;17.68;45.13672;929.772;;;;
2019/04/09 10:40:16;;;;;;;6;3.7;;;;;;;19.84;39.53809;929.659;;;;
2019/04/09 10:45:21;;;;;;;12.3;7.1;;;;;;;21.42;36.25;929.6462;;;;
2019/04/09 10:48:05;;;;;;;4.4;3.6;;;;;;;22.28;35.59277;929.5722;;;;
2019/04/09 10:52:33;;;;;;;5.3;4.2;;;;;;;21.24;37.9082;929.6051;;;;
2019/04/09 10:54:53;;;;;;;6.3;5;;;;;;;21.55;37.20898;929.567;;;;
2019/04/09 10:58:13;;;;;;;6.2;5;;;;;;;22.69;34.88672;929.5122;;;;
2019/04/09 10:59:40;;;;;;;7.4;6;;;;;;;21.81;36.31641;929.5275;;;;
2019/04/09 11:02:16;;;;;;;6.8;5.8;;;;;;;20.22;39.38477;929.4791;;;;
2019/04/09 11:07:09;;;;;;;7;6.2;;;;;;;20.78;37.92773;929.4867;;;;
2019/04/09 11:09:24;;;;;;;9.5;6.5;;;;;;;20.94;41.58984;929.472;;;;
2019/04/09 11:22:39;;;;;;;9.9;7;;;;;;;23.21;35.86816;929.2708;;;;
2019/04/09 11:27:35;;;;;;;7.8;7;;;;;;;23.46;35.7002;929.3219;;;;
2019/04/09 11:33:04;;;;;;;8.2;6.5;;;;;;;22.91;35.71484;929.3231;;;;
2019/04/09 11:51:31;;;;;;;13.2;8.5;;;;;;;17.86;48.84668;929.3269;;;;
2019/04/09 11:54:44;;;;;;;9.7;7.9;;;;;;;18.65;46.1084;929.1616;;;;
2019/04/09 11:57:19;;;;;;;9.3;7.7;;;;;;;19.83;42.60547;929.3251;;;;
2019/04/09 11:59:33;;;;;;;8.5;7.2;;;;;;;21.99;38.67578;929.2363;;;;
2019/04/09 12:02:18;;;;;;;11.1;7.3;;;;;;;22.43;37.22461;929.3318;;;;
2019/04/09 12:09:16;;;;;;;8.9;7.7;;;;;;;23.15;35.20508;929.1246;;;;
2019/04/09 12:11:42;;;;;;;9.1;7.7;;;;;;;20.65;39.48242;929.2344;;;;
2019/04/09 12:14:09;;;;;;;9;8.1;;;;;;;20.95;40.52637;929.2158;;;;
2019/04/09 12:18:12;;;;;;;9.1;8.1;;;;;;;19.89;43.7998;929.152;;;;
2019/04/09 12:22:16;;;;;;;9.3;7.4;;;;;;;22.77;35.08105;929.1325;;;;
2019/04/09 12:24:49;;;;;;;10;7.7;;;;;;;23.04;35.38379;929.0688;;;;
2019/04/09 12:36:56;;;;;;;10.5;9;;;;;;;17.42;48.36914;929.0123;;;;
2019/04/09 12:40:19;;;;;;;11.4;8.4;;;;;;;17.92;47.18164;928.9833;;;;
2019/04/09 12:42:00;;;;;;;9.9;8.5;;;;;;;18.59;45.99609;929.0109;;;;
2019/04/09 12:57:36;;;;;;;9.2;8.2;;;;;;;19.69;43.02344;928.8448;;;;
2019/04/09 13:04:35;;;;;;;9.6;8.6;;;;;;;17.1;49.06445;928.8971;;;;
2019/04/09 13:06:55;;;;;;;13.3;10.1;;;;;;;16.61;51.8457;928.7997;;;;
2019/04/09 13:09:09;;;;;;;10.3;9.2;;;;;;;16.27;52.25684;928.8273;;;;
2019/04/09 13:11:35;;;;;;;12.1;10.2;;;;;;;16.93;52.05762;928.7701;;;;
2019/04/09 13:14:37;;;;;;;12;10;;;;;;;18.07;47.57031;928.7472;;;;
2019/04/09 13:16:45;;;;;;;11.4;10.1;;;;;;;17.38;49.48926;928.6578;;;;
2019/04/09 13:19:41;;;;;;;13.3;10.9;;;;;;;17.26;51.05371;928.7428;;;;
2019/04/09 13:21:30;;;;;;;12.5;9.7;;;;;;;17.39;49.6416;928.6775;;;;
2019/04/09 13:26:21;;;;;;;11.6;10.4;;;;;;;17.63;48.94922;928.581;;;;
2019/04/09 13:32:09;;;;;;;10.7;9.2;;;;;;;17.75;49.08008;928.5078;;;;
2019/04/09 13:34:38;;;;;;;12.4;10.1;;;;;;;17.05;50.29883;928.5055;;;;
2019/04/09 13:39:16;;;;;;;10.7;9.4;;;;;;;16.73;50.86426;928.4455;;;;
2019/04/09 13:41:42;;;;;;;11.9;10.4;;;;;;;16.74;52.39453;928.4395;;;;
2019/04/09 13:44:04;;;;;;;13.1;11.5;;;;;;;16.87;52.52637;928.4825;;;;
2019/04/09 13:47:04;;;;;;;14.7;11.7;;;;;;;16.73;54.12988;928.3812;;;;
2019/04/09 13:49:01;;;;;;;13.7;12.1;;;;;;;16.68;54.57617;928.4041;;;;
2019/04/09 13:51:33;;;;;;;15.2;12.9;;;;;;;16.39;54.81738;928.3869;;;;
2019/04/09 13:53:41;;;;;;;15.5;12.6;;;;;;;16.17;54.93945;928.433;;;;
2019/04/09 13:56:05;;;;;;;14.4;12.1;;;;;;;16.81;52.17188;928.3738;;;;
2019/04/09 13:58:31;;;;;;;14.2;11.8;;;;;;;17.23;51.69824;928.3569;;;;
2019/04/09 14:00:56;;;;;;;16.4;12.7;;;;;;;16.94;53.34473;928.3187;;;;
2019/04/09 14:03:29;;;;;;;16.3;12.3;;;;;;;16.72;53.90918;928.403;;;;
2019/04/09 14:05:46;;;;;;;15.6;12.3;;;;;;;17.2;50.76758;928.2875;;;;
2019/04/09 14:08:11;;;;;;;15.7;13.3;;;;;;;16.56;54.90918;928.3725;;;;
2019/04/09 14:10:37;;;;;;;18.5;13.4;;;;;;;16.35;54.25684;928.3109;;;;
2019/04/09 14:13:02;;;;;;;18.1;14;;;;;;;16.23;55.75781;928.2927;;;;
2019/04/09 14:15:27;;;;;;;14.6;13.1;;;;;;;16.48;54.2959;928.277;;;;
2019/04/09 14:17:52;;;;;;;17.6;13.5;;;;;;;16.34;56.08398;928.3209;;;;
2019/04/09 14:20:18;;;;;;;17.3;13.1;;;;;;;16.64;52.81152;928.2893;;;;
2019/04/09 14:22:43;;;;;;;19.1;13.8;;;;;;;16.8;54.56738;928.3372;;;;
2019/04/09 14:25:08;;;;;;;16;13.6;;;;;;;16.64;55.01172;928.3239;;;;
2019/04/09 14:27:33;;;;;;;16.2;13.9;;;;;;;16.3;55.12891;928.327;;;;
2019/04/09 14:29:58;;;;;;;17.2;14.1;;;;;;;16.07;55.04395;928.3176;;;;
2019/04/09 14:32:24;;;;;;;19.2;14.8;;;;;;;15.63;56.68555;928.329;;;;
2019/04/09 14:34:49;;;;;;;17.3;14.9;;;;;;;15.47;57.78613;928.2892;;;;
2019/04/09 14:37:14;;;;;;;20.8;16;;;;;;;15.49;58.6084;928.304;;;;
2019/04/09 14:39:40;;;;;;;17.4;14.3;;;;;;;15.55;56.42188;928.3513;;;;
2019/04/09 14:42:06;;;;;;;20.9;15.5;;;;;;;15.4;58.67676;928.2594;;;;
2019/04/09 14:44:31;;;;;;;17.7;15.8;;;;;;;15.31;58.41016;928.2673;;;;
2019/04/09 14:46:56;;;;;;;18.4;15;;;;;;;15.51;57.9873;928.2585;;;;
2019/04/09 14:49:21;;;;;;;16.8;15;;;;;;;15.66;55.98438;928.3122;;;;
2019/04/09 14:51:46;;;;;;;19.2;15.1;;;;;;;15.93;55.98535;928.2932;;;;
2019/04/09 14:54:11;;;;;;;17.3;15.4;;;;;;;15.65;58.05273;928.3132;;;;
2019/04/09 14:56:36;;;;;;;19.2;15.8;;;;;;;15.24;58.10156;928.3019;;;;
2019/04/09 14:59:01;;;;;;;19.4;15.6;;;;;;;15.01;58.93652;928.1937;;;;
2019/04/09 15:01:27;;;;;;;18.1;15.8;;;;;;;15.22;58.30664;928.2871;;;;
2019/04/09 15:03:52;;;;;;;19.1;15.5;;;;;;;15.28;57.125;928.2584;;;;
2019/04/09 15:06:17;;;;;;;19.6;16.4;;;;;;;15.11;57.53027;928.267;;;;
2019/04/09 15:08:43;;;;;;;23.4;17;;;;;;;15.07;59.41699;928.2078;;;;
2019/04/09 15:11:08;;;;;;;20.1;17.1;;;;;;;14.6;61.08301;928.1256;;;;
2019/04/09 15:13:33;;;;;;;21.5;17.3;;;;;;;14.36;61.41602;928.2249;;;;
2019/04/09 15:16:05;;;;;;;21.7;18.4;;;;;;;14.51;61.2998;928.1589;;;;
2019/04/09 15:18:23;;;;;;;21.3;19;;;;;;;14.43;61.39258;928.1814;;;;
2019/04/09 15:23:13;;;;;;;23.4;19.6;;;;;;;14.56;61.42188;928.2172;;;;
2019/04/09 15:25:39;;;;;;;22.7;19.1;;;;;;;14.47;61.65137;928.2022;;;;
2019/04/09 15:28:04;;;;;;;25.4;20.7;;;;;;;14.02;64.03906;928.1899;;;;
2019/04/09 15:30:29;;;;;;;22.7;20.3;;;;;;;14.29;63.53906;928.2839;;;;
2019/04/09 15:32:54;;;;;;;26.8;21.7;;;;;;;14.39;64.69141;928.3236;;;;
2019/04/09 15:35:19;;;;;;;26.2;22;;;;;;;14.03;66.19336;928.3722;;;;
2019/04/09 15:37:44;;;;;;;29.8;23.6;;;;;;;14.04;66.50684;928.4048;;;;
2019/04/09 15:40:10;;;;;;;29.4;24.2;;;;;;;13.58;68.77051;928.4142;;;;
2019/04/09 15:42:35;;;;;;;31.5;25.1;;;;;;;13.45;69.96777;928.443;;;;
2019/04/09 15:45:00;;;;;;;32.5;26.4;;;;;;;13.13;72.29395;928.4643;;;;
2019/04/09 15:47:25;;;;;;;32.1;26.9;;;;;;;13.19;73.56641;928.4828;;;;
2019/04/09 15:49:50;;;;;;;33.9;27.6;;;;;;;13.4;73.41992;928.4955;;;;
2019/04/09 15:52:15;;;;;;;33.7;28.1;;;;;;;13.15;75.23828;928.4487;;;;
2019/04/09 15:54:40;;;;;;;34.8;28.9;;;;;;;13.15;74.91602;928.4615;;;;
2019/04/09 15:57:05;;;;;;;34.7;29;;;;;;;12.41;79.38672;928.5193;;;;
2019/04/09 15:59:30;;;;;;;39.1;31.8;;;;;;;12.25;80.41211;928.4744;;;;
2019/04/09 16:01:57;;;;;;;38.7;30.7;;;;;;;12.62;79.74609;928.4946;;;;
2019/04/09 16:04:27;;;;;;;34.5;28.6;;;;;;;12.73;78.05762;928.5281;;;;
2019/04/09 16:07:02;;;;;;;32;27.1;;;;;;;12.68;76.80762;928.4883;;;;
2019/04/09 16:09:43;;;;;;;32.4;27.8;;;;;;;12.75;78.3584;928.488;;;;
2019/04/09 16:12:11;;;;;;;37.4;28.2;;;;;;;12.84;78.41992;928.5844;;;;
2019/04/09 16:14:44;;;;;;;29.5;25.6;;;;;;;12.79;77.86133;928.5728;;;;
2019/04/09 16:17:12;;;;;;;33;26.7;;;;;;;12.82;78.08594;928.6158;;;;
2019/04/09 16:19:43;;;;;;;30.7;26;;;;;;;12.94;77.54297;928.6443;;;;
2019/04/09 16:22:18;;;;;;;32.6;25.8;;;;;;;13.04;76.72168;928.6967;;;;
2019/04/09 16:24:53;;;;;;;30.4;24.7;;;;;;;13.16;75.24902;928.6741;;;;
2019/04/09 16:27:18;;;;;;;29.6;23.8;;;;;;;12.73;75.62305;928.6903;;;;
2019/04/09 16:29:45;;;;;;;30.6;25.3;;;;;;;12.75;76.31641;928.7131;;;;
2019/04/09 16:32:19;;;;;;;31.4;24.3;;;;;;;12.73;77.45996;928.7031;;;;
2019/04/09 16:34:51;;;;;;;31.5;23.9;;;;;;;12.36;79.20508;928.7428;;;;
2019/04/09 16:37:21;;;;;;;30.7;25.2;;;;;;;12.25;80.42383;928.7297;;;;
2019/04/09 16:39:53;;;;;;;31.9;25.7;;;;;;;12.02;81.0332;928.8033;;;;
2019/04/09 16:42:35;;;;;;;24.1;20.6;;;;;;;11.61;81.75781;928.7897;;;;
2019/04/09 16:45:08;;;;;;;17.3;14.2;;;;;;;11.33;80.79004;928.855;;;;
2019/04/09 16:47:36;;;;;;;13.4;11.4;;;;;;;11.08;80.18262;928.8918;;;;
2019/04/09 16:50:06;;;;;;;12.6;11.1;;;;;;;10.97;81.76465;929.0007;;;;
2019/04/09 16:52:41;;;;;;;10;8.2;;;;;;;11.05;80.32715;929.0179;;;;
2019/04/09 16:55:16;;;;;;;11.1;7.5;;;;;;;10.69;81.12793;929.066;;;;
2019/04/09 16:57:54;;;;;;;11.1;7.6;;;;;;;10.71;82.85547;929.077;;;;
2019/04/09 17:00:23;;;;;;;10.8;8;;;;;;;10.69;83.53809;929.1082;;;;
2019/04/09 17:03:01;;;;;;;12.7;8.3;;;;;;;10.61;83.56738;929.1005;;;;
2019/04/09 17:05:35;;;;;;;13.4;9.5;;;;;;;10.69;83.87988;929.0915;;;;
2019/04/09 17:08:15;;;;;;;13.5;10.2;;;;;;;10.58;84.29297;929.0823;;;;
2019/04/09 17:10:51;;;;;;;16.4;12.2;;;;;;;10.54;85.57422;929.0952;;;;
2019/04/09 17:13:18;;;;;;;16.1;12.5;;;;;;;10.36;86.34961;929.0083;;;;
2019/04/09 17:15:44;;;;;;;12.5;10.2;;;;;;;10.27;85.77344;928.9841;;;;
2019/04/09 17:18:11;;;;;;;12.2;9.9;;;;;;;10.27;86.25293;929.0056;;;;
2019/04/09 17:20:42;;;;;;;14.3;10.2;;;;;;;10.17;86.37012;929.054;;;;
2019/04/09 17:23:15;;;;;;;12;10.1;;;;;;;10.1;86.37891;929.0311;;;;
2019/04/09 17:25:52;;;;;;;11.6;9.9;;;;;;;10.07;86.23633;929.2007;;;;
2019/04/09 17:28:33;;;;;;;13.2;10.3;;;;;;;10.3;86.69238;929.2059;;;;
2019/04/09 17:30:59;;;;;;;13.1;9.5;;;;;;;10.58;85.75488;929.3458;;;;
2019/04/09 17:33:26;;;;;;;10.8;8.7;;;;;;;10.54;85.01563;929.3714;;;;
2019/04/09 17:35:49;;;;;;;10;7.9;;;;;;;10.32;85.16797;929.4366;;;;
2019/04/09 17:38:14;;;;;;;10.8;7.6;;;;;;;10.16;86.74316;929.3524;;;;
2019/04/09 17:40:39;;;;;;;11.2;8;;;;;;;10.11;86.2207;929.3533;;;;
2019/04/09 17:43:04;;;;;;;10.5;7.4;;;;;;;10.1;86.29883;929.2181;;;;
2019/04/09 17:45:31;;;;;;;10.5;8.5;;;;;;;10.03;87.15137;929.3233;;;;
2019/04/09 17:47:56;;;;;;;12.4;9.3;;;;;;;10.35;86.18945;929.2805;;;;
2019/04/09 17:50:21;;;;;;;12.3;9.2;;;;;;;10.23;86.71191;929.285;;;;
2019/04/09 17:52:46;;;;;;;11.8;9.4;;;;;;;10.41;86.08594;929.2321;;;;
2019/04/09 17:55:11;;;;;;;10;8.4;;;;;;;10.27;86.96094;929.3406;;;;
2019/04/09 17:57:37;;;;;;;12.4;9;;;;;;;10.72;85.51855;929.3477;;;;
2019/04/09 18:00:02;;;;;;;15.6;11.5;;;;;;;10.54;84.94629;929.2951;;;;
2019/04/09 18:02:28;;;;;;;10.2;8.3;;;;;;;10.08;86.54395;929.3008;;;;
2019/04/09 18:04:53;;;;;;;10;8.5;;;;;;;10.23;86.20996;929.332;;;;
2019/04/09 18:07:18;;;;;;;12.3;9.9;;;;;;;10.54;85.4375;929.3245;;;;
2019/04/09 18:09:44;;;;;;;12.2;9.4;;;;;;;10.72;85.47363;929.3389;;;;
2019/04/09 18:12:09;;;;;;;12.9;10.3;;;;;;;10.31;85.77148;929.3189;;;;
2019/04/09 18:14:34;;;;;;;10.3;8.3;;;;;;;10.47;85.28613;929.2516;;;;
2019/04/09 18:16:59;;;;;;;8.2;5.3;;;;;;;10.53;83.5293;929.2537;;;;
2019/04/09 18:19:24;;;;;;;7.9;5.5;;;;;;;10.49;84.24316;929.3462;;;;
2019/04/09 18:21:49;;;;;;;10.3;8.7;;;;;;;10.76;83.47168;929.3466;;;;
2019/04/09 18:24:14;;;;;;;10.2;8.1;;;;;;;10.93;82.31641;929.3625;;;;
2019/04/09 18:26:40;;;;;;;10.9;8.3;;;;;;;10.95;83.78223;929.454;;;;
2019/04/09 18:29:07;;;;;;;18.3;14.3;;;;;;;11.26;81.90918;929.4669;;;;
2019/04/09 18:31:30;;;;;;;16.2;11.7;;;;;;;11.39;80.73535;929.528;;;;
2019/04/09 18:33:55;;;;;;;13.1;10.6;;;;;;;11.38;80.2168;929.5464;;;;
2019/04/09 18:36:20;;;;;;;8.2;6.3;;;;;;;11.4;80.19727;929.5908;;;;
2019/04/09 18:38:46;;;;;;;7.4;5.9;;;;;;;11.3;80.28223;929.5853;;;;
2019/04/09 18:41:11;;;;;;;9.6;7.6;;;;;;;11.06;82.08887;929.6631;;;;
2019/04/09 18:43:36;;;;;;;10;7.3;;;;;;;11.43;80.80859;929.6897;;;;
2019/04/09 18:46:01;;;;;;;9.1;6.4;;;;;;;11.58;80.23047;929.6941;;;;
2019/04/09 18:48:26;;;;;;;7.4;5.8;;;;;;;11.51;79.59961;929.6852;;;;
2019/04/09 18:50:53;;;;;;;7.1;5.8;;;;;;;11.53;79.51172;929.6658;;;;
2019/04/09 18:53:17;;;;;;;10.8;6.9;;;;;;;11.6;79.63867;929.7346;;;;
2019/04/09 18:55:42;;;;;;;9;6.7;;;;;;;11.69;79.18652;929.7715;;;;
2019/04/09 18:58:08;;;;;;;11.9;8.4;;;;;;;11.68;79.25293;929.7518;;;;
2019/04/09 19:00:35;;;;;;;14.7;11;;;;;;;11.49;79.88086;929.7729;;;;
2019/04/09 19:03:01;;;;;;;19.5;12.9;;;;;;;11.01;82.62891;929.7659;;;;
2019/04/09 19:05:26;;;;;;;22.2;14.1;;;;;;;10.98;83.41016;929.7693;;;;
2019/04/09 19:07:51;;;;;;;17.4;11.8;;;;;;;11.43;80.87793;929.8133;;;;
2019/04/09 19:10:16;;;;;;;15.7;10.8;;;;;;;11.65;80.54199;929.8486;;;;
2019/04/09 19:12:41;;;;;;;10.8;8.4;;;;;;;11.63;80.49121;929.8256;;;;
2019/04/09 19:15:06;;;;;;;13.1;9.8;;;;;;;11.6;80.73828;929.8406;;;;
2019/04/09 19:17:31;;;;;;;10.1;8.3;;;;;;;11.25;81.56445;929.7952;;;;
2019/04/09 19:19:56;;;;;;;10.4;8.6;;;;;;;11.11;82.64746;929.8063;;;;
2019/04/09 19:22:22;;;;;;;11.2;8.3;;;;;;;11.3;82.24902;929.8236;;;;
2019/04/09 19:24:47;;;;;;;10.8;8.5;;;;;;;11.38;81.77246;929.7927;;;;
2019/04/09 19:27:12;;;;;;;10.3;8.5;;;;;;;11.66;80.89648;929.8349;;;;
2019/04/09 19:29:37;;;;;;;9.8;8.2;;;;;;;11.47;81.33203;929.8425;;;;
2019/04/09 19:32:04;;;;;;;11;8.6;;;;;;;11.32;82.46973;929.7827;;;;
2019/04/09 19:34:28;;;;;;;11;8.9;;;;;;;11.53;81.46973;929.8102;;;;
2019/04/09 19:36:53;;;;;;;12;9;;;;;;;11.73;80.46582;929.78;;;;